Time,TemperatureF,DewpointF,PressureIn,WindDirection,WindDirectionDegrees,WindSpeedMPH,WindSpeedGustMPH,Humidity,HourlyPrecipIn,Conditions,Clouds,dailyrainin,SoftwareType,DateUTC
2013-03-29 00:02:00,50.2,37.7,30.26,SE,135,2.0,2.0,62,0.00,,,0.00,Wunderground v.1.15,2013-03-29 05:02:00,
2013-03-29 00:07:00,50.0,37.9,30.26,ESE,117,2.0,2.0,63,0.00,,,0.00,Wunderground v.1.15,2013-03-29 05:07:00,
2013-03-29 00:12:00,50.0,37.9,30.26,ESE,111,0.0,1.0,63,0.00,,,0.00,Wunderground v.1.15,2013-03-29 05:12:00,
2013-03-29 00:18:00,50.0,37.1,30.27,SE,135,0.0,1.0,61,0.00,,,0.00,Wunderground v.1.15,2013-03-29 05:18:00,
2013-03-29 00:23:00,50.1,37.2,30.26,SE,129,0.0,0.0,61,0.00,,,0.00,Wunderground v.1.15,2013-03-29 05:23:00,
2013-03-29 00:29:00,50.0,37.5,30.27,SE,133,0.0,0.0,62,0.00,,,0.00,Wunderground v.1.15,2013-03-29 05:29:00,
2013-03-29 00:34:00,49.9,37.0,30.27,SE,133,0.0,0.0,61,0.00,,,0.00,Wunderground v.1.15,2013-03-29 05:34:00,
2013-03-29 00:40:00,50.0,37.1,30.27,ENE,65,1.0,1.0,61,0.00,,,0.00,Wunderground v.1.15,2013-03-29 05:40:00,
2013-03-29 00:46:00,49.8,37.7,30.27,ENE,70,1.0,2.0,63,0.00,,,0.00,Wunderground v.1.15,2013-03-29 05:46:00,
2013-03-29 00:53:00,49.6,37.1,30.27,ENE,70,0.0,1.0,62,0.00,,,0.00,Wunderground v.1.15,2013-03-29 05:53:00,
2013-03-29 00:58:00,49.5,37.8,30.27,ENE,70,0.0,1.0,64,0.00,,,0.00,Wunderground v.1.15,2013-03-29 05:58:00,
2013-03-29 01:04:00,49.1,37.4,30.27,ENE,70,0.0,0.0,64,0.00,,,0.00,Wunderground v.1.15,2013-03-29 06:04:00,
2013-03-29 01:09:00,49.1,37.4,30.27,ENE,70,0.0,0.0,64,0.00,,,0.00,Wunderground v.1.15,2013-03-29 06:09:00,
2013-03-29 01:14:00,49.0,37.7,30.27,ESE,116,1.0,1.0,65,0.00,,,0.00,Wunderground v.1.15,2013-03-29 06:14:00,
2013-03-29 01:20:00,49.1,37.4,30.26,East,100,0.0,0.0,64,0.00,,,0.00,Wunderground v.1.15,2013-03-29 06:20:00,
2013-03-29 01:25:00,49.2,37.9,30.26,ESE,115,1.0,1.0,65,0.00,,,0.00,Wunderground v.1.15,2013-03-29 06:25:00,
2013-03-29 01:31:00,48.9,38.4,30.26,ESE,118,2.0,2.0,67,0.00,,,0.00,Wunderground v.1.15,2013-03-29 06:31:00,
2013-03-29 01:37:00,48.8,37.6,30.26,ESE,116,1.0,3.0,65,0.00,,,0.00,Wunderground v.1.15,2013-03-29 06:37:00,
2013-03-29 01:43:00,49.1,37.8,30.25,ESE,105,1.0,3.0,65,0.00,,,0.00,Wunderground v.1.15,2013-03-29 06:43:00,
2013-03-29 01:48:00,49.2,37.9,30.25,SE,133,2.0,3.0,65,0.00,,,0.00,Wunderground v.1.15,2013-03-29 06:48:00,
2013-03-29 01:53:00,49.3,38.0,30.25,SE,131,2.0,2.0,65,0.00,,,0.00,Wunderground v.1.15,2013-03-29 06:53:00,
2013-03-29 01:59:00,49.3,38.0,30.26,ESE,120,1.0,2.0,65,0.00,,,0.00,Wunderground v.1.15,2013-03-29 06:59:00,
2013-03-29 02:13:00,49.1,38.6,30.27,NNE,30,3.0,6.0,67,0.00,,,0.00,Wunderground v.1.15,2013-03-29 07:13:00,
2013-03-29 02:18:00,49.0,38.9,30.27,ENE,57,3.0,6.0,68,0.00,,,0.00,Wunderground v.1.15,2013-03-29 07:18:00,
2013-03-29 02:23:00,49.1,38.6,30.27,ENE,58,2.0,3.0,67,0.00,,,0.00,Wunderground v.1.15,2013-03-29 07:23:00,
2013-03-29 02:28:00,49.1,38.6,30.28,ENE,73,0.0,3.0,67,0.00,,,0.00,Wunderground v.1.15,2013-03-29 07:28:00,
2013-03-29 02:33:00,49.0,38.5,30.27,East,100,0.0,3.0,67,0.00,,,0.00,Wunderground v.1.15,2013-03-29 07:33:00,
2013-03-29 02:38:00,48.8,39.1,30.27,ESE,112,0.0,3.0,69,0.00,,,0.00,Wunderground v.1.15,2013-03-29 07:38:00,
2013-03-29 02:43:00,48.5,38.8,30.27,SSE,150,1.0,1.0,69,0.00,,,0.00,Wunderground v.1.15,2013-03-29 07:43:00,
2013-03-29 02:48:00,48.3,39.0,30.27,West,270,1.0,1.0,70,0.00,,,0.00,Wunderground v.1.15,2013-03-29 07:48:00,
2013-03-29 02:53:00,48.1,40.2,30.27,West,281,2.0,2.0,74,0.00,,,0.00,Wunderground v.1.15,2013-03-29 07:53:00,
2013-03-29 02:58:00,47.7,40.2,30.28,WNW,288,0.0,2.0,75,0.00,,,0.00,Wunderground v.1.15,2013-03-29 07:58:00,
2013-03-29 03:03:00,47.4,40.2,30.28,NE,56,0.0,1.0,76,0.00,,,0.00,Wunderground v.1.15,2013-03-29 08:03:00,
2013-03-29 03:08:00,47.2,40.7,30.27,SE,134,1.0,1.0,78,0.00,,,0.00,Wunderground v.1.15,2013-03-29 08:08:00,
2013-03-29 03:13:00,47.1,40.9,30.27,SE,130,1.0,4.0,79,0.00,,,0.00,Wunderground v.1.15,2013-03-29 08:13:00,
2013-03-29 03:18:00,46.7,40.9,30.27,ESE,123,1.0,4.0,80,0.00,,,0.01,Wunderground v.1.15,2013-03-29 08:18:00,
2013-03-29 03:23:00,47.0,40.2,30.26,ESE,103,1.0,4.0,77,0.12,,,0.02,Wunderground v.1.15,2013-03-29 08:23:00,
2013-03-29 03:28:00,46.8,41.3,30.26,ESE,115,1.0,4.0,81,0.07,,,0.02,Wunderground v.1.15,2013-03-29 08:28:00,
2013-03-29 03:33:00,46.6,41.4,30.26,ESE,111,0.0,2.0,82,0.04,,,0.02,Wunderground v.1.15,2013-03-29 08:33:00,
2013-03-29 03:38:00,46.4,40.9,30.26,ESE,111,0.0,2.0,81,0.00,,,0.02,Wunderground v.1.15,2013-03-29 08:38:00,
2013-03-29 03:43:00,46.4,41.2,30.25,ENE,75,1.0,2.0,82,0.00,,,0.02,Wunderground v.1.15,2013-03-29 08:43:00,
2013-03-29 03:48:00,46.3,41.4,30.25,ESE,104,2.0,2.0,83,0.00,,,0.02,Wunderground v.1.15,2013-03-29 08:48:00,
2013-03-29 03:53:00,46.2,41.3,30.24,ESE,117,0.0,3.0,83,0.00,,,0.02,Wunderground v.1.15,2013-03-29 08:53:00,
2013-03-29 03:58:00,46.1,41.2,30.24,ENE,76,1.0,3.0,83,0.00,,,0.02,Wunderground v.1.15,2013-03-29 08:58:00,
2013-03-29 04:03:00,46.3,40.8,30.24,ESE,108,4.0,5.0,81,0.00,,,0.02,Wunderground v.1.15,2013-03-29 09:03:00,
2013-03-29 04:08:00,46.5,40.7,30.24,ESE,102,1.0,5.0,80,0.00,,,0.02,Wunderground v.1.15,2013-03-29 09:08:00,
2013-03-29 04:13:00,46.7,40.9,30.25,East,98,1.0,4.0,80,0.00,,,0.02,Wunderground v.1.15,2013-03-29 09:13:00,
2013-03-29 04:18:00,46.7,40.9,30.25,NE,46,1.0,4.0,80,0.00,,,0.02,Wunderground v.1.15,2013-03-29 09:18:00,
2013-03-29 04:23:00,46.8,40.6,30.25,ESE,111,2.0,4.0,79,0.00,,,0.02,Wunderground v.1.15,2013-03-29 09:23:00,
2013-03-29 04:28:00,46.7,41.2,30.24,East,92,1.0,4.0,81,0.19,,,0.04,Wunderground v.1.15,2013-03-29 09:28:00,
2013-03-29 04:33:00,46.4,41.2,30.24,NE,56,1.0,3.0,82,0.13,,,0.05,Wunderground v.1.15,2013-03-29 09:33:00,
2013-03-29 04:38:00,46.1,41.2,30.25,ENE,78,1.0,3.0,83,0.09,,,0.05,Wunderground v.1.15,2013-03-29 09:38:00,
2013-03-29 04:43:00,45.9,41.0,30.25,East,94,0.0,1.0,83,0.05,,,0.05,Wunderground v.1.15,2013-03-29 09:43:00,
2013-03-29 04:48:00,45.8,41.2,30.24,East,99,0.0,2.0,84,0.04,,,0.05,Wunderground v.1.15,2013-03-29 09:48:00,
2013-03-29 04:53:00,45.6,41.4,30.23,ESE,114,2.0,4.0,85,0.00,,,0.05,Wunderground v.1.15,2013-03-29 09:53:00,
2013-03-29 04:58:00,45.6,41.4,30.23,ESE,105,2.0,5.0,85,0.00,,,0.06,Wunderground v.1.15,2013-03-29 09:58:00,
2013-03-29 05:03:00,45.5,41.3,30.23,East,95,2.0,4.0,85,0.00,,,0.06,Wunderground v.1.15,2013-03-29 10:03:00,
2013-03-29 05:08:00,45.5,41.6,30.24,East,101,1.0,5.0,86,0.00,,,0.06,Wunderground v.1.15,2013-03-29 10:08:00,
2013-03-29 05:13:00,45.5,41.6,30.25,ESE,115,2.0,4.0,86,0.00,,,0.06,Wunderground v.1.15,2013-03-29 10:13:00,
2013-03-29 05:18:00,45.5,41.6,30.26,NNE,29,2.0,5.0,86,0.00,,,0.06,Wunderground v.1.15,2013-03-29 10:18:00,
2013-03-29 05:23:00,45.5,41.3,30.26,East,86,1.0,3.0,85,0.00,,,0.06,Wunderground v.1.15,2013-03-29 10:23:00,
2013-03-29 05:28:00,45.4,41.2,30.26,ENE,65,1.0,4.0,85,0.00,,,0.06,Wunderground v.1.15,2013-03-29 10:28:00,
2013-03-29 05:33:00,45.4,41.2,30.26,ESE,111,1.0,3.0,85,0.00,,,0.06,Wunderground v.1.15,2013-03-29 10:33:00,
2013-03-29 05:38:00,45.3,41.4,30.26,ESE,103,2.0,4.0,86,0.00,,,0.06,Wunderground v.1.15,2013-03-29 10:38:00,
2013-03-29 05:43:00,45.2,41.3,30.26,NE,49,2.0,4.0,86,0.00,,,0.07,Wunderground v.1.15,2013-03-29 10:43:00,
2013-03-29 05:48:00,45.1,41.5,30.26,NE,51,2.0,4.0,87,0.21,,,0.09,Wunderground v.1.15,2013-03-29 10:48:00,
2013-03-29 05:53:00,44.8,41.2,30.25,East,96,5.0,6.0,87,0.35,,,0.12,Wunderground v.1.15,2013-03-29 10:53:00,
2013-03-29 05:58:00,44.7,41.4,30.26,East,89,1.0,6.0,88,0.17,,,0.13,Wunderground v.1.15,2013-03-29 10:58:00,
2013-03-29 06:03:00,44.6,41.3,30.26,ESE,117,1.0,3.0,88,0.14,,,0.14,Wunderground v.1.15,2013-03-29 11:03:00,
2013-03-29 06:08:00,44.5,41.5,30.26,East,86,0.0,3.0,89,0.07,,,0.15,Wunderground v.1.15,2013-03-29 11:08:00,
2013-03-29 06:13:00,44.4,41.4,30.26,ENE,58,0.0,2.0,89,0.07,,,0.15,Wunderground v.1.15,2013-03-29 11:13:00,
2013-03-29 06:18:00,44.4,41.7,30.25,East,100,7.0,9.0,90,0.06,,,0.16,Wunderground v.1.15,2013-03-29 11:18:00,
2013-03-29 06:23:00,45.1,42.1,30.26,SE,138,3.0,13.0,89,0.13,,,0.17,Wunderground v.1.15,2013-03-29 11:23:00,
2013-03-29 06:28:00,45.4,42.1,30.26,SSW,204,1.0,13.0,88,0.14,,,0.18,Wunderground v.1.15,2013-03-29 11:28:00,
2013-03-29 06:33:00,45.1,42.1,30.26,NE,48,0.0,4.0,89,0.13,,,0.19,Wunderground v.1.15,2013-03-29 11:33:00,
2013-03-29 06:38:00,45.0,42.2,30.27,WNW,290,3.0,4.0,90,0.26,,,0.21,Wunderground v.1.15,2013-03-29 11:38:00,
2013-03-29 06:43:00,45.0,42.2,30.27,ESE,107,1.0,2.0,90,0.34,,,0.24,Wunderground v.1.15,2013-03-29 11:43:00,
2013-03-29 06:48:00,45.2,42.4,30.27,WNW,287,3.0,3.0,90,0.20,,,0.25,Wunderground v.1.15,2013-03-29 11:48:00,
2013-03-29 06:53:00,45.2,42.7,30.27,SSE,150,2.0,4.0,91,0.14,,,0.26,Wunderground v.1.15,2013-03-29 11:53:00,
2013-03-29 06:58:00,45.1,42.6,30.27,South,176,4.0,6.0,91,0.24,,,0.28,Wunderground v.1.15,2013-03-29 11:58:00,
2013-03-29 07:03:00,45.5,43.0,30.28,WSW,238,1.0,4.0,91,0.40,,,0.31,Wunderground v.1.15,2013-03-29 12:03:00,
2013-03-29 07:09:00,45.4,42.9,30.27,SW,232,3.0,5.0,91,0.36,,,0.34,Wunderground v.1.15,2013-03-29 12:09:00,
2013-03-29 07:14:00,45.1,42.6,30.27,SW,226,4.0,7.0,91,0.40,,,0.37,Wunderground v.1.15,2013-03-29 12:14:00,
2013-03-29 07:19:00,44.9,42.7,30.27,SSE,167,3.0,7.0,92,0.33,,,0.41,Wunderground v.1.15,2013-03-29 12:19:00,
2013-03-29 07:24:00,44.8,42.9,30.27,SW,224,3.0,6.0,93,0.28,,,0.43,Wunderground v.1.15,2013-03-29 12:24:00,
2013-03-29 07:29:00,44.7,42.8,30.27,SSW,211,3.0,6.0,93,0.36,,,0.46,Wunderground v.1.15,2013-03-29 12:29:00,
2013-03-29 07:34:00,44.7,42.8,30.27,SSE,164,1.0,6.0,93,0.39,,,0.49,Wunderground v.1.15,2013-03-29 12:34:00,
2013-03-29 07:39:00,44.7,42.8,30.27,SSW,211,2.0,6.0,93,0.38,,,0.52,Wunderground v.1.15,2013-03-29 12:39:00,
2013-03-29 07:44:00,44.7,42.8,30.26,South,177,6.0,6.0,93,0.19,,,0.53,Wunderground v.1.15,2013-03-29 12:44:00,
2013-03-29 07:49:00,44.9,43.0,30.26,South,186,2.0,6.0,93,0.19,,,0.55,Wunderground v.1.15,2013-03-29 12:49:00,
2013-03-29 07:54:00,45.1,43.2,30.26,SSW,204,4.0,5.0,93,0.12,,,0.56,Wunderground v.1.15,2013-03-29 12:54:00,
2013-03-29 07:59:00,45.4,43.2,30.26,SSW,211,3.0,6.0,92,0.20,,,0.58,Wunderground v.1.15,2013-03-29 12:59:00,
2013-03-29 08:04:00,45.5,43.3,30.25,South,179,3.0,7.0,92,0.19,,,0.60,Wunderground v.1.15,2013-03-29 13:04:00,
2013-03-29 08:09:00,45.5,43.3,30.26,SW,231,4.0,8.0,92,0.29,,,0.62,Wunderground v.1.15,2013-03-29 13:09:00,
2013-03-29 08:14:00,45.5,43.3,30.26,SSW,198,3.0,7.0,92,0.21,,,0.63,Wunderground v.1.15,2013-03-29 13:14:00,
2013-03-29 08:19:00,45.5,43.3,30.25,South,188,6.0,9.0,92,0.35,,,0.66,Wunderground v.1.15,2013-03-29 13:19:00,
2013-03-29 08:24:00,45.7,43.2,30.25,SSE,164,5.0,8.0,91,0.26,,,0.68,Wunderground v.1.15,2013-03-29 13:24:00,
2013-03-29 08:29:00,45.9,43.4,30.25,SSW,207,3.0,11.0,91,0.19,,,0.70,Wunderground v.1.15,2013-03-29 13:29:00,
2013-03-29 08:34:00,46.0,43.5,30.24,South,191,5.0,9.0,91,0.23,,,0.72,Wunderground v.1.15,2013-03-29 13:34:00,
2013-03-29 08:39:00,46.0,43.5,30.24,South,170,3.0,9.0,91,0.19,,,0.73,Wunderground v.1.15,2013-03-29 13:39:00,
2013-03-29 08:44:00,46.0,43.5,30.25,South,190,2.0,10.0,91,0.28,,,0.76,Wunderground v.1.15,2013-03-29 13:44:00,
2013-03-29 08:49:00,46.0,43.5,30.25,SSE,166,2.0,10.0,91,0.20,,,0.77,Wunderground v.1.15,2013-03-29 13:49:00,
2013-03-29 08:54:00,46.0,43.8,30.25,SSE,155,2.0,6.0,92,0.12,,,0.78,Wunderground v.1.15,2013-03-29 13:54:00,
2013-03-29 08:59:00,45.9,43.7,30.25,SSE,163,0.0,6.0,92,0.07,,,0.78,Wunderground v.1.15,2013-03-29 13:59:00,
2013-03-29 09:04:00,46.0,43.8,30.25,South,191,1.0,3.0,92,0.06,,,0.79,Wunderground v.1.15,2013-03-29 14:04:00,
2013-03-29 09:09:00,46.1,43.9,30.25,SSW,210,0.0,4.0,92,0.06,,,0.79,Wunderground v.1.15,2013-03-29 14:09:00,
2013-03-29 09:14:00,46.1,43.9,30.25,SSE,166,1.0,3.0,92,0.04,,,0.79,Wunderground v.1.15,2013-03-29 14:14:00,
2013-03-29 09:19:00,46.1,43.9,30.25,SW,231,2.0,3.0,92,0.04,,,0.80,Wunderground v.1.15,2013-03-29 14:19:00,
2013-03-29 09:24:00,46.2,44.0,30.25,South,187,2.0,4.0,92,0.09,,,0.81,Wunderground v.1.15,2013-03-29 14:24:00,
2013-03-29 09:29:00,46.3,43.8,30.25,SSE,153,4.0,5.0,91,0.11,,,0.82,Wunderground v.1.15,2013-03-29 14:29:00,
2013-03-29 09:34:00,46.3,43.8,30.25,South,176,2.0,5.0,91,0.11,,,0.82,Wunderground v.1.15,2013-03-29 14:34:00,
2013-03-29 09:39:00,46.3,43.8,30.25,ESE,120,1.0,5.0,91,0.08,,,0.83,Wunderground v.1.15,2013-03-29 14:39:00,
2013-03-29 09:44:00,46.4,43.9,30.25,ESE,108,0.0,2.0,91,0.08,,,0.83,Wunderground v.1.15,2013-03-29 14:44:00,
2013-03-29 09:49:00,46.5,44.0,30.26,ENE,60,1.0,2.0,91,0.05,,,0.83,Wunderground v.1.15,2013-03-29 14:49:00,
2013-03-29 09:54:00,46.6,44.4,30.26,ESE,102,0.0,3.0,92,0.00,,,0.83,Wunderground v.1.15,2013-03-29 14:54:00,
2013-03-29 09:59:00,46.7,44.5,30.25,ESE,120,0.0,3.0,92,0.00,,,0.84,Wunderground v.1.15,2013-03-29 14:59:00,
2013-03-29 10:04:00,46.8,44.6,30.25,ESE,115,1.0,1.0,92,0.00,,,0.84,Wunderground v.1.15,2013-03-29 15:04:00,
2013-03-29 10:09:00,46.9,44.7,30.25,ESE,120,1.0,1.0,92,0.00,,,0.84,Wunderground v.1.15,2013-03-29 15:09:00,
2013-03-29 10:14:00,46.9,44.7,30.25,SSE,152,2.0,4.0,92,0.00,,,0.84,Wunderground v.1.15,2013-03-29 15:14:00,
2013-03-29 10:19:00,46.9,44.7,30.25,SE,131,1.0,4.0,92,0.00,,,0.84,Wunderground v.1.15,2013-03-29 15:19:00,
2013-03-29 10:24:00,47.1,44.9,30.25,SE,141,2.0,3.0,92,0.00,,,0.84,Wunderground v.1.15,2013-03-29 15:24:00,
2013-03-29 10:29:00,47.2,45.3,30.25,SE,132,1.0,3.0,93,0.00,,,0.84,Wunderground v.1.15,2013-03-29 15:29:00,
2013-03-29 10:34:00,47.1,44.9,30.25,ESE,111,4.0,6.0,92,0.00,,,0.85,Wunderground v.1.15,2013-03-29 15:34:00,
2013-03-29 10:39:00,47.2,45.0,30.24,South,169,3.0,6.0,92,0.00,,,0.85,Wunderground v.1.15,2013-03-29 15:39:00,
2013-03-29 10:44:00,47.2,45.0,30.24,SE,133,3.0,4.0,92,0.00,,,0.85,Wunderground v.1.15,2013-03-29 15:44:00,
2013-03-29 10:49:00,47.2,45.0,30.24,SSE,153,3.0,6.0,92,0.00,,,0.85,Wunderground v.1.15,2013-03-29 15:49:00,
2013-03-29 10:54:00,47.3,45.4,30.24,South,181,1.0,3.0,93,0.00,,,0.86,Wunderground v.1.15,2013-03-29 15:54:00,
2013-03-29 10:59:00,47.4,45.5,30.24,SSE,153,0.0,3.0,93,0.00,,,0.86,Wunderground v.1.15,2013-03-29 15:59:00,
2013-03-29 11:04:00,47.5,45.3,30.25,ENE,74,1.0,1.0,92,0.00,,,0.86,Wunderground v.1.15,2013-03-29 16:04:00,
2013-03-29 11:09:00,47.8,45.9,30.25,NE,56,0.0,2.0,93,0.00,,,0.86,Wunderground v.1.15,2013-03-29 16:09:00,
2013-03-29 11:14:00,48.0,45.8,30.25,East,89,2.0,2.0,92,0.00,,,0.86,Wunderground v.1.15,2013-03-29 16:14:00,
2013-03-29 11:19:00,48.3,46.1,30.25,SE,144,0.0,3.0,92,0.00,,,0.86,Wunderground v.1.15,2013-03-29 16:19:00,
2013-03-29 11:24:00,48.8,46.6,30.25,ESE,115,2.0,3.0,92,0.00,,,0.86,Wunderground v.1.15,2013-03-29 16:24:00,
2013-03-29 11:29:00,49.0,46.2,30.25,SSE,148,2.0,5.0,90,0.00,,,0.86,Wunderground v.1.15,2013-03-29 16:29:00,
2013-03-29 11:34:00,49.4,46.6,30.25,SSE,149,1.0,2.0,90,0.00,,,0.86,Wunderground v.1.15,2013-03-29 16:34:00,
2013-03-29 11:39:00,49.7,46.3,30.25,NW,316,1.0,5.0,88,0.00,,,0.86,Wunderground v.1.15,2013-03-29 16:39:00,
2013-03-29 11:44:00,50.1,47.3,30.25,SSE,147,4.0,6.0,90,0.00,,,0.86,Wunderground v.1.15,2013-03-29 16:44:00,
2013-03-29 11:49:00,50.4,47.0,30.25,SW,235,4.0,6.0,88,0.00,,,0.86,Wunderground v.1.15,2013-03-29 16:49:00,
2013-03-29 11:54:00,50.8,47.1,30.25,SE,139,2.0,4.0,87,0.00,,,0.86,Wunderground v.1.15,2013-03-29 16:54:00,
2013-03-29 11:59:00,51.0,47.0,30.25,SSE,159,2.0,4.0,86,0.00,,,0.86,Wunderground v.1.15,2013-03-29 16:59:00,
2013-03-29 12:04:00,51.3,47.3,30.24,SW,222,2.0,6.0,86,0.00,,,0.86,Wunderground v.1.15,2013-03-29 17:04:00,
2013-03-29 12:09:00,51.5,47.5,30.24,SSE,148,0.0,6.0,86,0.00,,,0.86,Wunderground v.1.15,2013-03-29 17:09:00,
2013-03-29 12:14:00,51.8,47.1,30.24,SW,228,3.0,7.0,84,0.00,,,0.86,Wunderground v.1.15,2013-03-29 17:14:00,
2013-03-29 12:19:00,51.8,47.4,30.24,ESE,121,0.0,7.0,85,0.00,,,0.86,Wunderground v.1.15,2013-03-29 17:19:00,
2013-03-29 12:24:00,52.1,47.4,30.24,WSW,239,2.0,5.0,84,0.00,,,0.86,Wunderground v.1.15,2013-03-29 17:24:00,
2013-03-29 12:29:00,52.4,47.7,30.24,SW,220,3.0,5.0,84,0.00,,,0.86,Wunderground v.1.15,2013-03-29 17:29:00,
2013-03-29 12:34:00,52.8,48.1,30.23,South,188,6.0,7.0,84,0.00,,,0.86,Wunderground v.1.15,2013-03-29 17:34:00,
2013-03-29 12:39:00,53.5,47.5,30.24,West,281,3.0,7.0,80,0.00,,,0.86,Wunderground v.1.15,2013-03-29 17:39:00,
2013-03-29 12:44:00,53.8,48.1,30.23,West,262,1.0,6.0,81,0.00,,,0.86,Wunderground v.1.15,2013-03-29 17:44:00,
2013-03-29 12:49:00,53.7,47.3,30.23,WSW,246,3.0,7.0,79,0.00,,,0.86,Wunderground v.1.15,2013-03-29 17:49:00,
2013-03-29 12:54:00,53.9,47.2,30.23,SW,231,3.0,7.0,78,0.00,,,0.86,Wunderground v.1.15,2013-03-29 17:54:00,
2013-03-29 12:59:00,54.1,47.7,30.23,West,264,1.0,7.0,79,0.00,,,0.86,Wunderground v.1.15,2013-03-29 17:59:00,
2013-03-29 13:04:00,54.3,47.2,30.23,SW,218,2.0,8.0,77,0.00,,,0.86,Wunderground v.1.15,2013-03-29 18:04:00,
2013-03-29 13:09:00,54.7,48.0,30.22,WSW,238,5.0,8.0,78,0.00,,,0.86,Wunderground v.1.15,2013-03-29 18:09:00,
2013-03-29 13:14:00,55.1,48.0,30.23,South,183,5.0,7.0,77,0.00,,,0.86,Wunderground v.1.15,2013-03-29 18:14:00,
2013-03-29 13:19:00,55.2,47.1,30.22,WNW,301,3.0,7.0,74,0.00,,,0.86,Wunderground v.1.15,2013-03-29 18:19:00,
2013-03-29 13:24:00,55.2,47.8,30.22,SW,219,4.0,6.0,76,0.00,,,0.86,Wunderground v.1.15,2013-03-29 18:24:00,
2013-03-29 13:29:00,55.4,47.2,30.22,SSE,158,1.0,7.0,74,0.00,,,0.86,Wunderground v.1.15,2013-03-29 18:29:00,
2013-03-29 13:34:00,55.7,47.5,30.22,SSW,210,4.0,7.0,74,0.00,,,0.86,Wunderground v.1.15,2013-03-29 18:34:00,
2013-03-29 13:39:00,56.3,47.8,30.22,SSE,152,0.0,7.0,73,0.00,,,0.86,Wunderground v.1.15,2013-03-29 18:39:00,
2013-03-29 13:44:00,56.8,47.5,30.22,WNW,285,1.0,4.0,71,0.00,,,0.86,Wunderground v.1.15,2013-03-29 18:44:00,
2013-03-29 13:49:00,56.6,48.0,30.22,East,96,0.0,4.0,73,0.00,,,0.86,Wunderground v.1.15,2013-03-29 18:49:00,
2013-03-29 13:54:00,56.8,47.9,30.21,NNW,335,0.0,1.0,72,0.00,,,0.86,Wunderground v.1.15,2013-03-29 18:54:00,
2013-03-29 13:59:00,57.1,47.4,30.21,WSW,242,0.0,2.0,70,0.00,,,0.86,Wunderground v.1.15,2013-03-29 18:59:00,
2013-03-29 14:04:00,57.1,47.4,30.21,SW,221,2.0,2.0,70,0.00,,,0.86,Wunderground v.1.15,2013-03-29 19:04:00,
2013-03-29 14:09:00,57.1,48.2,30.21,West,277,1.0,3.0,72,0.00,,,0.86,Wunderground v.1.15,2013-03-29 19:09:00,
2013-03-29 14:15:00,56.9,47.2,30.21,West,259,3.0,5.0,70,0.00,,,0.86,Wunderground v.1.15,2013-03-29 19:15:00,
2013-03-29 14:20:00,57.0,48.1,30.21,South,185,1.0,5.0,72,0.00,,,0.86,Wunderground v.1.15,2013-03-29 19:20:00,
2013-03-29 14:25:00,57.0,47.7,30.20,NW,322,0.0,3.0,71,0.00,,,0.86,Wunderground v.1.15,2013-03-29 19:25:00,
2013-03-29 14:30:00,56.9,47.6,30.20,WNW,289,0.0,3.0,71,0.00,,,0.86,Wunderground v.1.15,2013-03-29 19:30:00,
2013-03-29 14:35:00,57.0,47.3,30.20,West,270,2.0,4.0,70,0.00,,,0.86,Wunderground v.1.15,2013-03-29 19:35:00,
2013-03-29 14:40:00,56.7,48.5,30.20,West,264,4.0,4.0,74,0.00,,,0.86,Wunderground v.1.15,2013-03-29 19:40:00,
2013-03-29 14:45:00,56.4,47.1,30.20,West,269,1.0,4.0,71,0.00,,,0.86,Wunderground v.1.15,2013-03-29 19:45:00,
2013-03-29 14:50:00,56.4,47.1,30.20,WSW,242,0.0,1.0,71,0.00,,,0.86,Wunderground v.1.15,2013-03-29 19:50:00,
2013-03-29 14:55:00,56.6,47.7,30.20,WSW,240,1.0,1.0,72,0.00,,,0.86,Wunderground v.1.15,2013-03-29 19:55:00,
2013-03-29 15:00:00,56.5,47.9,30.20,NW,316,1.0,1.0,73,0.00,,,0.86,Wunderground v.1.15,2013-03-29 20:00:00,
2013-03-29 15:05:00,56.2,47.7,30.20,WNW,293,1.0,2.0,73,0.00,,,0.86,Wunderground v.1.15,2013-03-29 20:05:00,
2013-03-29 15:10:00,56.0,47.5,30.20,WNW,293,0.0,1.0,73,0.00,,,0.86,Wunderground v.1.15,2013-03-29 20:10:00,
2013-03-29 15:15:00,56.1,47.6,30.20,WNW,293,0.0,1.0,73,0.00,,,0.86,Wunderground v.1.15,2013-03-29 20:15:00,
2013-03-29 15:20:00,56.2,47.3,30.19,NNW,338,0.0,1.0,72,0.00,,,0.86,Wunderground v.1.15,2013-03-29 20:20:00,
2013-03-29 15:25:00,56.1,47.6,30.20,WSW,250,0.0,1.0,73,0.00,,,0.86,Wunderground v.1.15,2013-03-29 20:25:00,
2013-03-29 15:30:00,56.3,48.1,30.19,West,261,1.0,2.0,74,0.00,,,0.86,Wunderground v.1.15,2013-03-29 20:30:00,
2013-03-29 15:35:00,56.3,48.1,30.19,WNW,283,2.0,3.0,74,0.00,,,0.86,Wunderground v.1.15,2013-03-29 20:35:00,
2013-03-29 15:40:00,56.1,47.6,30.19,WSW,243,2.0,3.0,73,0.00,,,0.86,Wunderground v.1.15,2013-03-29 20:40:00,
2013-03-29 15:45:00,56.1,47.9,30.19,SW,219,2.0,3.0,74,0.00,,,0.86,Wunderground v.1.15,2013-03-29 20:45:00,
2013-03-29 15:50:00,56.4,48.2,30.19,SSE,148,0.0,1.0,74,0.00,,,0.86,Wunderground v.1.15,2013-03-29 20:50:00,
2013-03-29 15:55:00,56.5,47.9,30.19,SW,229,1.0,2.0,73,0.00,,,0.86,Wunderground v.1.15,2013-03-29 20:55:00,
2013-03-29 16:00:00,56.7,48.1,30.19,SW,229,0.0,1.0,73,0.00,,,0.86,Wunderground v.1.15,2013-03-29 21:00:00,
2013-03-29 16:05:00,56.9,48.0,30.18,SE,139,0.0,1.0,72,0.00,,,0.86,Wunderground v.1.15,2013-03-29 21:05:00,
2013-03-29 16:10:00,57.1,48.2,30.18,North,5,1.0,3.0,72,0.00,,,0.86,Wunderground v.1.15,2013-03-29 21:10:00,
2013-03-29 16:15:00,57.1,48.2,30.18,ESE,120,0.0,3.0,72,0.00,,,0.86,Wunderground v.1.15,2013-03-29 21:15:00,
2013-03-29 16:20:00,57.0,48.1,30.18,North,354,1.0,2.0,72,0.00,,,0.86,Wunderground v.1.15,2013-03-29 21:20:00,
2013-03-29 16:25:00,57.0,48.1,30.18,NE,37,1.0,2.0,72,0.00,,,0.86,Wunderground v.1.15,2013-03-29 21:25:00,
2013-03-29 16:30:00,56.8,47.9,30.18,NE,56,0.0,1.0,72,0.00,,,0.86,Wunderground v.1.15,2013-03-29 21:30:00,
2013-03-29 16:35:00,57.0,48.8,30.18,North,8,1.0,2.0,74,0.00,,,0.86,Wunderground v.1.15,2013-03-29 21:35:00,
2013-03-29 16:40:00,56.9,48.7,30.18,NW,319,1.0,2.0,74,0.00,,,0.86,Wunderground v.1.15,2013-03-29 21:40:00,
2013-03-29 16:45:00,56.7,48.1,30.18,NW,323,2.0,3.0,73,0.00,,,0.86,Wunderground v.1.15,2013-03-29 21:45:00,
2013-03-29 16:50:00,56.5,48.3,30.18,NW,311,1.0,1.0,74,0.00,,,0.86,Wunderground v.1.15,2013-03-29 21:50:00,
2013-03-29 16:55:00,56.5,48.7,30.18,ENE,61,2.0,2.0,75,0.00,,,0.86,Wunderground v.1.15,2013-03-29 21:55:00,
2013-03-29 17:00:00,56.4,48.6,30.18,ENE,58,0.0,1.0,75,0.00,,,0.86,Wunderground v.1.15,2013-03-29 22:00:00,
2013-03-29 17:05:00,56.4,48.6,30.18,NE,47,1.0,2.0,75,0.00,,,0.86,Wunderground v.1.15,2013-03-29 22:05:00,
2013-03-29 17:10:00,56.4,48.6,30.18,NNW,339,1.0,1.0,75,0.00,,,0.86,Wunderground v.1.15,2013-03-29 22:10:00,
2013-03-29 17:15:00,56.3,48.5,30.18,NE,43,2.0,2.0,75,0.00,,,0.86,Wunderground v.1.15,2013-03-29 22:15:00,
2013-03-29 17:20:00,56.3,48.5,30.18,NNW,347,0.0,1.0,75,0.00,,,0.86,Wunderground v.1.15,2013-03-29 22:20:00,
2013-03-29 17:25:00,56.3,48.5,30.19,NE,43,0.0,2.0,75,0.00,,,0.86,Wunderground v.1.15,2013-03-29 22:25:00,
2013-03-29 17:30:00,56.1,48.3,30.19,NE,49,1.0,2.0,75,0.00,,,0.86,Wunderground v.1.15,2013-03-29 22:30:00,
2013-03-29 17:35:00,56.0,48.9,30.19,North,349,1.0,2.0,77,0.00,,,0.86,Wunderground v.1.15,2013-03-29 22:35:00,
2013-03-29 17:40:00,55.9,48.8,30.19,ENE,70,0.0,2.0,77,0.00,,,0.86,Wunderground v.1.15,2013-03-29 22:40:00,
2013-03-29 17:45:00,55.7,48.6,30.19,ENE,60,3.0,3.0,77,0.00,,,0.86,Wunderground v.1.15,2013-03-29 22:45:00,
2013-03-29 17:50:00,55.4,48.7,30.19,NE,56,2.0,3.0,78,0.00,,,0.86,Wunderground v.1.15,2013-03-29 22:50:00,
2013-03-29 17:56:00,55.3,48.6,30.19,NE,49,2.0,3.0,78,0.00,,,0.86,Wunderground v.1.15,2013-03-29 22:56:00,
2013-03-29 18:01:00,55.0,48.6,30.19,NE,45,3.0,3.0,79,0.00,,,0.86,Wunderground v.1.15,2013-03-29 23:01:00,
2013-03-29 18:06:00,54.8,48.7,30.19,NE,51,1.0,4.0,80,0.00,,,0.86,Wunderground v.1.15,2013-03-29 23:06:00,
2013-03-29 18:11:00,54.6,48.9,30.19,NE,43,3.0,4.0,81,0.00,,,0.86,Wunderground v.1.15,2013-03-29 23:11:00,
2013-03-29 18:17:00,54.4,48.7,30.19,NE,44,2.0,5.0,81,0.00,,,0.86,Wunderground v.1.15,2013-03-29 23:17:00,
2013-03-29 18:22:00,54.3,48.9,30.19,NNE,33,3.0,3.0,82,0.00,,,0.86,Wunderground v.1.15,2013-03-29 23:22:00,
2013-03-29 18:27:00,54.1,48.7,30.20,NE,40,3.0,4.0,82,0.00,,,0.86,Wunderground v.1.15,2013-03-29 23:27:00,
2013-03-29 18:32:00,53.9,48.5,30.20,ENE,58,4.0,5.0,82,0.00,,,0.86,Wunderground v.1.15,2013-03-29 23:32:00,
2013-03-29 18:37:00,53.7,48.7,30.20,NNE,32,1.0,6.0,83,0.00,,,0.86,Wunderground v.1.15,2013-03-29 23:37:00,
2013-03-29 18:42:00,53.4,48.7,30.20,NE,52,4.0,4.0,84,0.00,,,0.86,Wunderground v.1.15,2013-03-29 23:42:00,
2013-03-29 18:47:00,53.2,48.8,30.20,NE,53,3.0,5.0,85,0.00,,,0.86,Wunderground v.1.15,2013-03-29 23:47:00,
2013-03-29 18:52:00,52.9,48.5,30.20,NE,40,2.0,4.0,85,0.00,,,0.86,Wunderground v.1.15,2013-03-29 23:52:00,
2013-03-29 18:57:00,52.6,48.5,30.20,NE,44,3.0,4.0,86,0.00,,,0.86,Wunderground v.1.15,2013-03-29 23:57:00,
2013-03-29 19:02:00,52.5,48.7,30.20,NE,47,2.0,3.0,87,0.00,,,0.86,Wunderground v.1.15,2013-03-30 00:02:00,
2013-03-29 19:07:00,52.3,48.5,30.20,ENE,69,2.0,4.0,87,0.00,,,0.86,Wunderground v.1.15,2013-03-30 00:07:00,
2013-03-29 19:12:00,52.2,48.4,30.20,NE,50,3.0,5.0,87,0.00,,,0.86,Wunderground v.1.15,2013-03-30 00:12:00,
2013-03-29 19:17:00,52.1,48.3,30.21,NE,49,2.0,5.0,87,0.00,,,0.86,Wunderground v.1.15,2013-03-30 00:17:00,
2013-03-29 19:23:00,52.1,48.3,30.21,NE,49,3.0,4.0,87,0.00,,,0.86,Wunderground v.1.15,2013-03-30 00:23:00,
2013-03-29 19:28:00,52.0,48.3,30.21,NE,41,4.0,8.0,87,0.00,,,0.86,Wunderground v.1.15,2013-03-30 00:28:00,
2013-03-29 19:33:00,52.0,48.3,30.21,ENE,60,2.0,4.0,87,0.00,,,0.86,Wunderground v.1.15,2013-03-30 00:33:00,
2013-03-29 19:38:00,51.9,48.2,30.21,East,89,2.0,6.0,87,0.00,,,0.86,Wunderground v.1.15,2013-03-30 00:38:00,
2013-03-29 19:43:00,51.8,48.1,30.21,ENE,75,3.0,6.0,87,0.00,,,0.86,Wunderground v.1.15,2013-03-30 00:43:00,
2013-03-29 19:48:00,51.7,48.0,30.21,ENE,58,2.0,6.0,87,0.00,,,0.86,Wunderground v.1.15,2013-03-30 00:48:00,
2013-03-29 19:53:00,51.7,48.0,30.21,NE,47,3.0,4.0,87,0.00,,,0.86,Wunderground v.1.15,2013-03-30 00:53:00,
2013-03-29 19:58:00,51.6,47.9,30.21,NE,50,4.0,5.0,87,0.00,,,0.86,Wunderground v.1.15,2013-03-30 00:58:00,
2013-03-29 20:03:00,51.5,48.1,30.21,NE,53,3.0,4.0,88,0.00,,,0.86,Wunderground v.1.15,2013-03-30 01:03:00,
2013-03-29 20:08:00,51.4,48.0,30.21,NE,56,2.0,4.0,88,0.00,,,0.86,Wunderground v.1.15,2013-03-30 01:08:00,
2013-03-29 20:13:00,51.3,47.9,30.21,ENE,58,4.0,5.0,88,0.00,,,0.86,Wunderground v.1.15,2013-03-30 01:13:00,
2013-03-29 20:18:00,51.3,47.9,30.21,NE,54,3.0,5.0,88,0.00,,,0.86,Wunderground v.1.15,2013-03-30 01:18:00,
2013-03-29 20:23:00,51.2,47.8,30.21,NE,53,2.0,5.0,88,0.00,,,0.86,Wunderground v.1.15,2013-03-30 01:23:00,
2013-03-29 20:28:00,51.2,47.8,30.22,East,88,1.0,5.0,88,0.00,,,0.86,Wunderground v.1.15,2013-03-30 01:28:00,
2013-03-29 20:33:00,51.1,47.7,30.22,ENE,70,1.0,5.0,88,0.00,,,0.86,Wunderground v.1.15,2013-03-30 01:33:00,
2013-03-29 20:38:00,51.0,47.6,30.22,NNW,343,2.0,5.0,88,0.00,,,0.86,Wunderground v.1.15,2013-03-30 01:38:00,
2013-03-29 20:43:00,50.9,47.8,30.22,NE,44,2.0,5.0,89,0.00,,,0.86,Wunderground v.1.15,2013-03-30 01:43:00,
2013-03-29 20:48:00,50.8,47.7,30.22,NE,54,3.0,5.0,89,0.00,,,0.86,Wunderground v.1.15,2013-03-30 01:48:00,
2013-03-29 20:53:00,50.8,47.7,30.22,ENE,60,3.0,4.0,89,0.00,,,0.86,Wunderground v.1.15,2013-03-30 01:53:00,
2013-03-29 20:58:00,50.7,47.6,30.22,NE,43,3.0,4.0,89,0.00,,,0.86,Wunderground v.1.15,2013-03-30 01:58:00,
2013-03-29 21:03:00,50.6,47.8,30.22,ENE,58,5.0,5.0,90,0.00,,,0.86,Wunderground v.1.15,2013-03-30 02:03:00,
2013-03-29 21:08:00,50.6,47.8,30.22,NE,47,3.0,5.0,90,0.00,,,0.86,Wunderground v.1.15,2013-03-30 02:08:00,
2013-03-29 21:13:00,50.5,47.7,30.23,NE,48,4.0,5.0,90,0.00,,,0.86,Wunderground v.1.15,2013-03-30 02:13:00,
2013-03-29 21:18:00,50.4,47.6,30.22,NE,50,4.0,6.0,90,0.00,,,0.86,Wunderground v.1.15,2013-03-30 02:18:00,
2013-03-29 21:23:00,50.3,47.5,30.23,ENE,68,3.0,5.0,90,0.00,,,0.86,Wunderground v.1.15,2013-03-30 02:23:00,
2013-03-29 21:28:00,50.2,47.4,30.23,NE,51,3.0,5.0,90,0.00,,,0.86,Wunderground v.1.15,2013-03-30 02:28:00,
2013-03-29 21:33:00,50.1,47.3,30.23,NNE,12,1.0,5.0,90,0.00,,,0.86,Wunderground v.1.15,2013-03-30 02:33:00,
2013-03-29 21:38:00,49.9,47.1,30.23,ENE,70,2.0,5.0,90,0.00,,,0.86,Wunderground v.1.15,2013-03-30 02:38:00,
2013-03-29 21:43:00,49.8,47.0,30.23,NE,53,0.0,3.0,90,0.00,,,0.86,Wunderground v.1.15,2013-03-30 02:43:00,
2013-03-29 21:48:00,49.7,46.9,30.23,ENE,70,2.0,3.0,90,0.00,,,0.86,Wunderground v.1.15,2013-03-30 02:48:00,
2013-03-29 21:53:00,49.6,46.8,30.23,ENE,60,2.0,2.0,90,0.00,,,0.86,Wunderground v.1.15,2013-03-30 02:53:00,
2013-03-29 21:58:00,49.4,46.9,30.23,NE,54,1.0,3.0,91,0.00,,,0.86,Wunderground v.1.15,2013-03-30 02:58:00,
2013-03-29 22:03:00,49.3,46.8,30.23,NE,46,0.0,2.0,91,0.00,,,0.86,Wunderground v.1.15,2013-03-30 03:03:00,
2013-03-29 22:08:00,49.1,46.6,30.23,ENE,63,0.0,2.0,91,0.00,,,0.86,Wunderground v.1.15,2013-03-30 03:08:00,
2013-03-29 22:13:00,48.9,46.4,30.23,NE,56,2.0,2.0,91,0.00,,,0.86,Wunderground v.1.15,2013-03-30 03:13:00,
2013-03-29 22:18:00,48.6,46.1,30.23,ENE,61,1.0,3.0,91,0.00,,,0.86,Wunderground v.1.15,2013-03-30 03:18:00,
2013-03-29 22:23:00,48.4,46.2,30.23,NE,46,0.0,2.0,92,0.00,,,0.86,Wunderground v.1.15,2013-03-30 03:23:00,
2013-03-29 22:28:00,48.2,46.0,30.23,ENE,60,0.0,2.0,92,0.00,,,0.86,Wunderground v.1.15,2013-03-30 03:28:00,
2013-03-29 22:33:00,48.0,45.8,30.22,ENE,60,0.0,1.0,92,0.00,,,0.86,Wunderground v.1.15,2013-03-30 03:33:00,
2013-03-29 22:38:00,47.9,46.0,30.22,ESE,102,0.0,1.0,93,0.00,,,0.86,Wunderground v.1.15,2013-03-30 03:38:00,
2013-03-29 22:43:00,47.8,45.9,30.22,East,94,0.0,2.0,93,0.00,,,0.86,Wunderground v.1.15,2013-03-30 03:43:00,
2013-03-29 22:48:00,47.6,45.7,30.22,East,93,0.0,2.0,93,0.00,,,0.86,Wunderground v.1.15,2013-03-30 03:48:00,
2013-03-29 22:53:00,47.4,45.5,30.22,East,94,0.0,0.0,93,0.00,,,0.86,Wunderground v.1.15,2013-03-30 03:53:00,
2013-03-29 22:58:00,47.1,45.5,30.22,East,95,0.0,0.0,94,0.00,,,0.86,Wunderground v.1.15,2013-03-30 03:58:00,
2013-03-29 23:00:00,47.1,45.5,30.22,ESE,113,0.0,1.0,94,0.00,,,0.86,Wunderground v.1.15,2013-03-30 04:00:00,
2013-03-29 23:05:00,46.9,45.3,30.22,ESE,116,0.0,0.0,94,0.00,,,0.86,Wunderground v.1.15,2013-03-30 04:05:00,
2013-03-29 23:10:00,46.7,45.1,30.21,ESE,115,0.0,0.0,94,0.00,,,0.86,Wunderground v.1.15,2013-03-30 04:10:00,
2013-03-29 23:15:00,46.4,44.8,30.22,ESE,116,0.0,0.0,94,0.00,,,0.86,Wunderground v.1.15,2013-03-30 04:15:00,
2013-03-29 23:20:00,45.9,44.0,30.22,ESE,115,0.0,0.0,93,0.00,,,0.86,Wunderground v.1.15,2013-03-30 04:20:00,
2013-03-29 23:25:00,45.5,43.9,30.22,ESE,115,0.0,0.0,94,0.00,,,0.86,Wunderground v.1.15,2013-03-30 04:25:00,
2013-03-29 23:30:00,45.1,43.8,30.21,ESE,116,0.0,0.0,95,0.00,,,0.86,Wunderground v.1.15,2013-03-30 04:30:00,
2013-03-29 23:35:00,45.2,43.9,30.21,ESE,116,0.0,0.0,95,0.00,,,0.86,Wunderground v.1.15,2013-03-30 04:35:00,
2013-03-29 23:40:00,44.7,43.1,30.21,ESE,115,0.0,0.0,94,0.00,,,0.86,Wunderground v.1.15,2013-03-30 04:40:00,
2013-03-29 23:45:00,44.2,42.6,30.21,ESE,116,0.0,0.0,94,0.00,,,0.86,Wunderground v.1.15,2013-03-30 04:45:00,
2013-03-29 23:50:00,44.0,42.7,30.21,ESE,116,0.0,0.0,95,0.00,,,0.86,Wunderground v.1.15,2013-03-30 04:50:00,
2013-03-29 23:55:00,44.1,43.0,30.21,ESE,116,0.0,0.0,96,0.00,,,0.86,Wunderground v.1.15,2013-03-30 04:55:00,